sensor_id;sensor_type;location;lat;lon;timestamp;P1;durP1;ratioP1;P2;durP2;ratioP2
35648;SDS011;21768;48.562;13.414;2023-07-13T00:00:41;7.43;;;5.50;;
35648;SDS011;21768;48.562;13.414;2023-07-13T00:03:07;15.90;;;6.40;;
35648;SDS011;21768;48.562;13.414;2023-07-13T00:05:33;10.10;;;6.65;;
35648;SDS011;21768;48.562;13.414;2023-07-13T00:07:58;17.48;;;6.60;;
35648;SDS011;21768;48.562;13.414;2023-07-13T00:10:24;13.88;;;6.28;;
35648;SDS011;21768;48.562;13.414;2023-07-13T00:12:49;13.95;;;6.72;;
35648;SDS011;21768;48.562;13.414;2023-07-13T00:15:17;12.43;;;7.43;;
35648;SDS011;21768;48.562;13.414;2023-07-13T00:17:48;10.65;;;6.90;;
35648;SDS011;21768;48.562;13.414;2023-07-13T00:20:17;9.90;;;6.60;;
35648;SDS011;21768;48.562;13.414;2023-07-13T00:22:46;13.85;;;6.43;;
35648;SDS011;21768;48.562;13.414;2023-07-13T00:25:12;13.20;;;6.93;;
35648;SDS011;21768;48.562;13.414;2023-07-13T00:27:38;15.98;;;6.80;;
35648;SDS011;21768;48.562;13.414;2023-07-13T00:30:03;8.95;;;6.40;;
35648;SDS011;21768;48.562;13.414;2023-07-13T00:32:30;16.10;;;6.65;;
35648;SDS011;21768;48.562;13.414;2023-07-13T00:34:55;11.48;;;6.20;;
35648;SDS011;21768;48.562;13.414;2023-07-13T00:37:22;11.32;;;6.13;;
35648;SDS011;21768;48.562;13.414;2023-07-13T00:39:48;15.40;;;5.88;;
35648;SDS011;21768;48.562;13.414;2023-07-13T00:42:13;15.18;;;6.45;;
35648;SDS011;21768;48.562;13.414;2023-07-13T00:44:39;16.10;;;6.78;;
35648;SDS011;21768;48.562;13.414;2023-07-13T00:47:05;8.75;;;5.75;;
35648;SDS011;21768;48.562;13.414;2023-07-13T00:49:31;10.52;;;6.18;;
35648;SDS011;21768;48.562;13.414;2023-07-13T00:52:05;11.10;;;6.35;;
35648;SDS011;21768;48.562;13.414;2023-07-13T00:54:38;12.35;;;7.35;;
35648;SDS011;21768;48.562;13.414;2023-07-13T00:57:11;13.77;;;6.60;;
35648;SDS011;21768;48.562;13.414;2023-07-13T00:59:40;9.82;;;6.68;;
35648;SDS011;21768;48.562;13.414;2023-07-13T01:02:10;14.35;;;6.85;;
35648;SDS011;21768;48.562;13.414;2023-07-13T01:04:36;11.90;;;6.93;;
35648;SDS011;21768;48.562;13.414;2023-07-13T01:07:03;14.30;;;6.80;;
35648;SDS011;21768;48.562;13.414;2023-07-13T01:09:31;17.67;;;7.35;;
35648;SDS011;21768;48.562;13.414;2023-07-13T01:11:56;19.15;;;7.18;;
35648;SDS011;21768;48.562;13.414;2023-07-13T01:14:22;11.82;;;6.60;;
35648;SDS011;21768;48.562;13.414;2023-07-13T01:16:47;14.55;;;7.65;;
35648;SDS011;21768;48.562;13.414;2023-07-13T01:19:18;16.10;;;7.28;;
35648;SDS011;21768;48.562;13.414;2023-07-13T01:22:01;12.65;;;7.13;;
35648;SDS011;21768;48.562;13.414;2023-07-13T01:24:37;14.23;;;7.30;;
35648;SDS011;21768;48.562;13.414;2023-07-13T01:27:07;18.65;;;7.55;;
35648;SDS011;21768;48.562;13.414;2023-07-13T01:29:33;16.77;;;7.43;;
35648;SDS011;21768;48.562;13.414;2023-07-13T01:32:00;19.45;;;7.15;;
35648;SDS011;21768;48.562;13.414;2023-07-13T01:34:26;10.88;;;6.90;;
35648;SDS011;21768;48.562;13.414;2023-07-13T01:36:54;10.05;;;6.47;;
35648;SDS011;21768;48.562;13.414;2023-07-13T01:39:23;8.48;;;6.63;;
35648;SDS011;21768;48.562;13.414;2023-07-13T01:41:48;14.90;;;6.95;;
35648;SDS011;21768;48.562;13.414;2023-07-13T01:44:14;13.88;;;7.35;;
35648;SDS011;21768;48.562;13.414;2023-07-13T01:46:39;11.23;;;7.03;;
35648;SDS011;21768;48.562;13.414;2023-07-13T01:49:05;11.57;;;6.65;;
35648;SDS011;21768;48.562;13.414;2023-07-13T01:51:30;9.80;;;5.95;;
35648;SDS011;21768;48.562;13.414;2023-07-13T01:53:55;11.07;;;6.88;;
35648;SDS011;21768;48.562;13.414;2023-07-13T01:56:21;11.13;;;6.70;;
35648;SDS011;21768;48.562;13.414;2023-07-13T01:58:46;11.07;;;6.28;;
35648;SDS011;21768;48.562;13.414;2023-07-13T02:01:12;12.90;;;6.47;;
35648;SDS011;21768;48.562;13.414;2023-07-13T02:03:37;14.30;;;5.88;;
35648;SDS011;21768;48.562;13.414;2023-07-13T02:06:03;11.38;;;5.78;;
35648;SDS011;21768;48.562;13.414;2023-07-13T02:08:28;13.30;;;6.00;;
35648;SDS011;21768;48.562;13.414;2023-07-13T02:10:54;7.25;;;5.00;;
35648;SDS011;21768;48.562;13.414;2023-07-13T02:13:19;10.50;;;4.85;;
35648;SDS011;21768;48.562;13.414;2023-07-13T02:15:44;6.30;;;4.40;;
35648;SDS011;21768;48.562;13.414;2023-07-13T02:18:10;9.60;;;5.20;;
35648;SDS011;21768;48.562;13.414;2023-07-13T02:20:35;10.00;;;4.85;;
35648;SDS011;21768;48.562;13.414;2023-07-13T02:23:01;10.85;;;4.53;;
35648;SDS011;21768;48.562;13.414;2023-07-13T02:25:26;12.98;;;4.88;;
35648;SDS011;21768;48.562;13.414;2023-07-13T02:27:52;6.00;;;4.40;;
35648;SDS011;21768;48.562;13.414;2023-07-13T02:30:17;6.15;;;3.90;;
35648;SDS011;21768;48.562;13.414;2023-07-13T02:32:43;11.77;;;4.40;;
35648;SDS011;21768;48.562;13.414;2023-07-13T02:35:09;9.23;;;4.55;;
35648;SDS011;21768;48.562;13.414;2023-07-13T02:37:35;9.73;;;4.40;;
35648;SDS011;21768;48.562;13.414;2023-07-13T02:40:00;12.80;;;4.25;;
35648;SDS011;21768;48.562;13.414;2023-07-13T02:42:29;11.50;;;4.43;;
35648;SDS011;21768;48.562;13.414;2023-07-13T02:44:54;12.18;;;3.97;;
35648;SDS011;21768;48.562;13.414;2023-07-13T02:47:20;8.05;;;4.50;;
35648;SDS011;21768;48.562;13.414;2023-07-13T02:49:45;14.07;;;4.28;;
35648;SDS011;21768;48.562;13.414;2023-07-13T02:52:10;8.88;;;4.07;;
35648;SDS011;21768;48.562;13.414;2023-07-13T02:54:36;6.32;;;3.78;;
35648;SDS011;21768;48.562;13.414;2023-07-13T02:57:01;15.40;;;4.20;;
35648;SDS011;21768;48.562;13.414;2023-07-13T02:59:27;8.85;;;3.55;;
35648;SDS011;21768;48.562;13.414;2023-07-13T03:01:52;10.57;;;3.70;;
35648;SDS011;21768;48.562;13.414;2023-07-13T03:04:18;8.65;;;3.67;;
35648;SDS011;21768;48.562;13.414;2023-07-13T03:06:44;9.75;;;4.05;;
35648;SDS011;21768;48.562;13.414;2023-07-13T03:09:10;5.10;;;3.40;;
35648;SDS011;21768;48.562;13.414;2023-07-13T03:11:35;9.85;;;3.55;;
35648;SDS011;21768;48.562;13.414;2023-07-13T03:14:00;8.68;;;3.72;;
35648;SDS011;21768;48.562;13.414;2023-07-13T03:16:26;5.22;;;3.75;;
35648;SDS011;21768;48.562;13.414;2023-07-13T03:18:51;8.10;;;3.25;;
35648;SDS011;21768;48.562;13.414;2023-07-13T03:21:16;4.93;;;3.25;;
35648;SDS011;21768;48.562;13.414;2023-07-13T03:23:42;6.95;;;3.80;;
35648;SDS011;21768;48.562;13.414;2023-07-13T03:26:08;6.05;;;3.10;;
35648;SDS011;21768;48.562;13.414;2023-07-13T03:28:39;9.60;;;3.67;;
35648;SDS011;21768;48.562;13.414;2023-07-13T03:31:06;11.85;;;3.80;;
35648;SDS011;21768;48.562;13.414;2023-07-13T03:33:34;10.15;;;3.90;;
35648;SDS011;21768;48.562;13.414;2023-07-13T03:36:00;9.57;;;5.68;;
35648;SDS011;21768;48.562;13.414;2023-07-13T03:38:25;9.73;;;4.05;;
35648;SDS011;21768;48.562;13.414;2023-07-13T03:40:51;12.45;;;4.50;;
35648;SDS011;21768;48.562;13.414;2023-07-13T03:43:16;9.75;;;4.65;;
35648;SDS011;21768;48.562;13.414;2023-07-13T03:45:42;9.95;;;4.80;;
35648;SDS011;21768;48.562;13.414;2023-07-13T03:48:07;9.02;;;4.85;;
35648;SDS011;21768;48.562;13.414;2023-07-13T03:50:32;8.60;;;4.63;;
35648;SDS011;21768;48.562;13.414;2023-07-13T03:52:58;12.48;;;4.43;;
35648;SDS011;21768;48.562;13.414;2023-07-13T03:55:24;10.73;;;4.75;;
35648;SDS011;21768;48.562;13.414;2023-07-13T03:57:57;13.18;;;4.80;;
35648;SDS011;21768;48.562;13.414;2023-07-13T04:00:24;12.00;;;4.50;;
35648;SDS011;21768;48.562;13.414;2023-07-13T04:02:50;7.20;;;4.10;;
35648;SDS011;21768;48.562;13.414;2023-07-13T04:05:16;8.50;;;4.22;;
35648;SDS011;21768;48.562;13.414;2023-07-13T04:07:41;9.38;;;4.38;;
35648;SDS011;21768;48.562;13.414;2023-07-13T04:10:07;11.23;;;4.32;;
35648;SDS011;21768;48.562;13.414;2023-07-13T04:12:33;12.05;;;3.75;;
35648;SDS011;21768;48.562;13.414;2023-07-13T04:14:58;13.85;;;4.35;;
35648;SDS011;21768;48.562;13.414;2023-07-13T04:17:23;8.70;;;4.40;;
35648;SDS011;21768;48.562;13.414;2023-07-13T04:19:49;9.40;;;3.92;;
35648;SDS011;21768;48.562;13.414;2023-07-13T04:22:14;13.70;;;4.05;;
35648;SDS011;21768;48.562;13.414;2023-07-13T04:24:39;9.60;;;3.92;;
35648;SDS011;21768;48.562;13.414;2023-07-13T04:27:05;9.85;;;4.05;;
35648;SDS011;21768;48.562;13.414;2023-07-13T04:29:31;8.80;;;4.30;;
35648;SDS011;21768;48.562;13.414;2023-07-13T04:31:57;8.48;;;4.05;;
35648;SDS011;21768;48.562;13.414;2023-07-13T04:34:22;20.38;;;8.48;;
35648;SDS011;21768;48.562;13.414;2023-07-13T04:36:49;7.63;;;3.78;;
35648;SDS011;21768;48.562;13.414;2023-07-13T04:39:15;11.35;;;3.88;;
35648;SDS011;21768;48.562;13.414;2023-07-13T04:41:40;10.38;;;3.70;;
35648;SDS011;21768;48.562;13.414;2023-07-13T04:44:05;7.60;;;3.83;;
35648;SDS011;21768;48.562;13.414;2023-07-13T04:46:31;11.65;;;3.28;;
35648;SDS011;21768;48.562;13.414;2023-07-13T04:48:56;12.70;;;3.80;;
35648;SDS011;21768;48.562;13.414;2023-07-13T04:51:22;5.53;;;3.10;;
35648;SDS011;21768;48.562;13.414;2023-07-13T04:53:48;6.07;;;3.35;;
35648;SDS011;21768;48.562;13.414;2023-07-13T04:56:13;6.80;;;3.33;;
35648;SDS011;21768;48.562;13.414;2023-07-13T04:58:39;11.90;;;2.75;;
35648;SDS011;21768;48.562;13.414;2023-07-13T05:01:05;7.10;;;3.30;;
35648;SDS011;21768;48.562;13.414;2023-07-13T05:03:31;9.18;;;3.00;;
35648;SDS011;21768;48.562;13.414;2023-07-13T05:06:00;4.68;;;2.67;;
35648;SDS011;21768;48.562;13.414;2023-07-13T05:08:27;5.22;;;2.47;;
35648;SDS011;21768;48.562;13.414;2023-07-13T05:10:53;6.90;;;2.30;;
35648;SDS011;21768;48.562;13.414;2023-07-13T05:13:18;9.85;;;2.88;;
35648;SDS011;21768;48.562;13.414;2023-07-13T05:15:44;7.30;;;2.83;;
35648;SDS011;21768;48.562;13.414;2023-07-13T05:18:10;6.95;;;3.00;;
35648;SDS011;21768;48.562;13.414;2023-07-13T05:20:36;6.50;;;3.17;;
35648;SDS011;21768;48.562;13.414;2023-07-13T05:23:01;7.50;;;2.92;;
35648;SDS011;21768;48.562;13.414;2023-07-13T05:25:26;9.00;;;2.80;;
35648;SDS011;21768;48.562;13.414;2023-07-13T05:27:52;6.22;;;2.45;;
35648;SDS011;21768;48.562;13.414;2023-07-13T05:30:17;9.15;;;2.80;;
35648;SDS011;21768;48.562;13.414;2023-07-13T05:32:42;6.38;;;2.47;;
35648;SDS011;21768;48.562;13.414;2023-07-13T05:35:08;5.28;;;2.50;;
35648;SDS011;21768;48.562;13.414;2023-07-13T05:37:34;5.82;;;3.10;;
35648;SDS011;21768;48.562;13.414;2023-07-13T05:39:59;8.40;;;3.10;;
35648;SDS011;21768;48.562;13.414;2023-07-13T05:42:25;4.90;;;2.50;;
35648;SDS011;21768;48.562;13.414;2023-07-13T05:44:50;9.07;;;2.50;;
35648;SDS011;21768;48.562;13.414;2023-07-13T05:47:15;6.03;;;2.88;;
35648;SDS011;21768;48.562;13.414;2023-07-13T05:49:41;6.07;;;2.90;;
35648;SDS011;21768;48.562;13.414;2023-07-13T05:52:06;6.30;;;2.78;;
35648;SDS011;21768;48.562;13.414;2023-07-13T05:54:32;8.05;;;3.22;;
35648;SDS011;21768;48.562;13.414;2023-07-13T05:56:57;8.25;;;2.92;;
35648;SDS011;21768;48.562;13.414;2023-07-13T05:59:23;11.95;;;3.22;;
35648;SDS011;21768;48.562;13.414;2023-07-13T06:01:48;8.00;;;2.78;;
35648;SDS011;21768;48.562;13.414;2023-07-13T06:04:14;10.63;;;3.00;;
35648;SDS011;21768;48.562;13.414;2023-07-13T06:06:39;6.45;;;3.30;;
35648;SDS011;21768;48.562;13.414;2023-07-13T06:09:05;10.77;;;3.00;;
35648;SDS011;21768;48.562;13.414;2023-07-13T06:11:30;10.13;;;3.15;;
35648;SDS011;21768;48.562;13.414;2023-07-13T06:13:56;11.65;;;3.75;;
35648;SDS011;21768;48.562;13.414;2023-07-13T06:16:21;6.95;;;3.75;;
35648;SDS011;21768;48.562;13.414;2023-07-13T06:18:47;9.57;;;3.60;;
35648;SDS011;21768;48.562;13.414;2023-07-13T06:21:14;10.93;;;3.42;;
35648;SDS011;21768;48.562;13.414;2023-07-13T06:23:41;12.68;;;3.92;;
35648;SDS011;21768;48.562;13.414;2023-07-13T06:26:07;11.68;;;3.50;;
35648;SDS011;21768;48.562;13.414;2023-07-13T06:28:33;6.30;;;3.40;;
35648;SDS011;21768;48.562;13.414;2023-07-13T06:31:00;5.97;;;3.75;;
35648;SDS011;21768;48.562;13.414;2023-07-13T06:33:26;8.25;;;3.95;;
35648;SDS011;21768;48.562;13.414;2023-07-13T06:35:52;8.27;;;4.40;;
35648;SDS011;21768;48.562;13.414;2023-07-13T06:38:18;18.80;;;8.43;;
35648;SDS011;21768;48.562;13.414;2023-07-13T06:40:43;13.30;;;4.30;;
35648;SDS011;21768;48.562;13.414;2023-07-13T06:43:09;7.63;;;3.63;;
35648;SDS011;21768;48.562;13.414;2023-07-13T06:45:41;10.77;;;4.03;;
35648;SDS011;21768;48.562;13.414;2023-07-13T06:48:10;14.50;;;3.70;;
35648;SDS011;21768;48.562;13.414;2023-07-13T06:50:36;7.00;;;3.78;;
35648;SDS011;21768;48.562;13.414;2023-07-13T06:53:02;8.75;;;4.03;;
35648;SDS011;21768;48.562;13.414;2023-07-13T06:55:27;11.68;;;3.90;;
35648;SDS011;21768;48.562;13.414;2023-07-13T06:57:52;10.63;;;4.45;;
35648;SDS011;21768;48.562;13.414;2023-07-13T07:00:18;10.65;;;4.28;;
35648;SDS011;21768;48.562;13.414;2023-07-13T07:02:44;13.25;;;4.30;;
35648;SDS011;21768;48.562;13.414;2023-07-13T07:05:09;8.15;;;3.83;;
35648;SDS011;21768;48.562;13.414;2023-07-13T07:07:34;8.55;;;4.03;;
35648;SDS011;21768;48.562;13.414;2023-07-13T07:10:00;13.77;;;4.32;;
35648;SDS011;21768;48.562;13.414;2023-07-13T07:12:25;11.57;;;3.72;;
35648;SDS011;21768;48.562;13.414;2023-07-13T07:14:51;9.52;;;4.22;;
35648;SDS011;21768;48.562;13.414;2023-07-13T07:17:16;11.82;;;4.47;;
35648;SDS011;21768;48.562;13.414;2023-07-13T07:19:41;13.43;;;4.18;;
35648;SDS011;21768;48.562;13.414;2023-07-13T07:22:07;14.05;;;3.65;;
35648;SDS011;21768;48.562;13.414;2023-07-13T07:24:32;10.68;;;3.80;;
35648;SDS011;21768;48.562;13.414;2023-07-13T07:26:58;7.80;;;3.63;;
35648;SDS011;21768;48.562;13.414;2023-07-13T07:29:23;10.05;;;3.85;;
35648;SDS011;21768;48.562;13.414;2023-07-13T07:31:51;8.70;;;3.75;;
35648;SDS011;21768;48.562;13.414;2023-07-13T07:34:17;7.68;;;4.07;;
35648;SDS011;21768;48.562;13.414;2023-07-13T07:36:42;12.25;;;3.90;;
35648;SDS011;21768;48.562;13.414;2023-07-13T07:39:07;5.18;;;3.17;;
35648;SDS011;21768;48.562;13.414;2023-07-13T07:41:33;14.10;;;4.65;;
35648;SDS011;21768;48.562;13.414;2023-07-13T07:43:58;9.75;;;3.63;;
35648;SDS011;21768;48.562;13.414;2023-07-13T07:46:23;5.97;;;3.33;;
35648;SDS011;21768;48.562;13.414;2023-07-13T07:48:49;14.82;;;4.05;;
35648;SDS011;21768;48.562;13.414;2023-07-13T07:51:14;5.53;;;3.33;;
35648;SDS011;21768;48.562;13.414;2023-07-13T07:53:39;10.85;;;3.75;;
35648;SDS011;21768;48.562;13.414;2023-07-13T07:56:05;14.73;;;3.78;;
35648;SDS011;21768;48.562;13.414;2023-07-13T07:58:30;12.10;;;3.50;;
35648;SDS011;21768;48.562;13.414;2023-07-13T08:01:05;13.00;;;4.00;;
35648;SDS011;21768;48.562;13.414;2023-07-13T08:03:31;6.50;;;3.25;;
35648;SDS011;21768;48.562;13.414;2023-07-13T08:05:57;10.20;;;4.00;;
35648;SDS011;21768;48.562;13.414;2023-07-13T08:08:22;7.55;;;3.60;;
35648;SDS011;21768;48.562;13.414;2023-07-13T08:10:48;9.70;;;3.40;;
35648;SDS011;21768;48.562;13.414;2023-07-13T08:13:13;8.48;;;3.42;;
35648;SDS011;21768;48.562;13.414;2023-07-13T08:15:38;14.68;;;3.88;;
35648;SDS011;21768;48.562;13.414;2023-07-13T08:18:05;10.02;;;3.47;;
35648;SDS011;21768;48.562;13.414;2023-07-13T08:20:31;10.02;;;2.95;;
35648;SDS011;21768;48.562;13.414;2023-07-13T08:22:56;6.72;;;3.33;;
35648;SDS011;21768;48.562;13.414;2023-07-13T08:25:21;6.60;;;2.97;;
35648;SDS011;21768;48.562;13.414;2023-07-13T08:27:48;9.77;;;3.50;;
35648;SDS011;21768;48.562;13.414;2023-07-13T08:30:13;11.55;;;3.17;;
35648;SDS011;21768;48.562;13.414;2023-07-13T08:32:38;7.13;;;2.80;;
35648;SDS011;21768;48.562;13.414;2023-07-13T08:35:05;8.95;;;2.90;;
35648;SDS011;21768;48.562;13.414;2023-07-13T08:37:30;12.05;;;3.33;;
35648;SDS011;21768;48.562;13.414;2023-07-13T08:39:56;7.97;;;2.80;;
35648;SDS011;21768;48.562;13.414;2023-07-13T08:47:57;8.40;;;2.50;;
35648;SDS011;21768;48.562;13.414;2023-07-13T08:50:46;4.50;;;2.70;;
35648;SDS011;21768;48.562;13.414;2023-07-13T08:53:16;20.00;;;13.20;;
35648;SDS011;21768;48.562;13.414;2023-07-13T08:55:42;6.97;;;2.92;;
35648;SDS011;21768;48.562;13.414;2023-07-13T08:58:11;6.35;;;3.00;;
35648;SDS011;21768;48.562;13.414;2023-07-13T09:03:23;7.15;;;2.90;;
35648;SDS011;21768;48.562;13.414;2023-07-13T09:05:57;8.45;;;3.20;;
35648;SDS011;21768;48.562;13.414;2023-07-13T09:16:25;8.00;;;2.65;;
35648;SDS011;21768;48.562;13.414;2023-07-13T09:18:51;5.20;;;3.25;;
35648;SDS011;21768;48.562;13.414;2023-07-13T09:21:34;11.52;;;2.95;;
35648;SDS011;21768;48.562;13.414;2023-07-13T09:24:26;9.05;;;3.20;;
35648;SDS011;21768;48.562;13.414;2023-07-13T09:26:52;7.05;;;2.65;;
35648;SDS011;21768;48.562;13.414;2023-07-13T09:29:21;7.82;;;2.78;;
35648;SDS011;21768;48.562;13.414;2023-07-13T09:31:53;12.50;;;2.70;;
35648;SDS011;21768;48.562;13.414;2023-07-13T09:34:20;5.10;;;2.80;;
35648;SDS011;21768;48.562;13.414;2023-07-13T09:36:46;7.25;;;2.72;;
35648;SDS011;21768;48.562;13.414;2023-07-13T09:39:18;6.90;;;2.58;;
35648;SDS011;21768;48.562;13.414;2023-07-13T09:44:39;5.57;;;2.40;;
35648;SDS011;21768;48.562;13.414;2023-07-13T09:47:16;5.55;;;2.47;;
35648;SDS011;21768;48.562;13.414;2023-07-13T09:49:58;5.45;;;2.28;;
35648;SDS011;21768;48.562;13.414;2023-07-13T09:52:25;4.78;;;2.00;;
35648;SDS011;21768;48.562;13.414;2023-07-13T09:54:52;5.60;;;2.10;;
35648;SDS011;21768;48.562;13.414;2023-07-13T09:57:24;9.57;;;2.30;;
35648;SDS011;21768;48.562;13.414;2023-07-13T09:59:52;6.57;;;1.77;;
35648;SDS011;21768;48.562;13.414;2023-07-13T10:02:32;4.55;;;2.17;;
35648;SDS011;21768;48.562;13.414;2023-07-13T10:05:00;6.43;;;2.05;;
35648;SDS011;21768;48.562;13.414;2023-07-13T10:07:29;7.47;;;2.17;;
35648;SDS011;21768;48.562;13.414;2023-07-13T10:09:56;5.82;;;2.13;;
35648;SDS011;21768;48.562;13.414;2023-07-13T10:12:25;7.57;;;2.53;;
35648;SDS011;21768;48.562;13.414;2023-07-13T10:14:56;5.97;;;2.03;;
35648;SDS011;21768;48.562;13.414;2023-07-13T10:17:31;10.85;;;2.88;;
35648;SDS011;21768;48.562;13.414;2023-07-13T10:20:06;5.78;;;2.60;;
35648;SDS011;21768;48.562;13.414;2023-07-13T10:22:39;7.78;;;2.17;;
35648;SDS011;21768;48.562;13.414;2023-07-13T10:25:16;6.80;;;2.10;;
35648;SDS011;21768;48.562;13.414;2023-07-13T10:27:47;7.80;;;2.22;;
35648;SDS011;21768;48.562;13.414;2023-07-13T10:32:48;7.00;;;2.50;;
35648;SDS011;21768;48.562;13.414;2023-07-13T10:35:15;7.07;;;2.40;;
35648;SDS011;21768;48.562;13.414;2023-07-13T10:38:00;4.25;;;2.10;;
35648;SDS011;21768;48.562;13.414;2023-07-13T10:41:15;4.30;;;1.95;;
35648;SDS011;21768;48.562;13.414;2023-07-13T10:43:28;5.57;;;2.20;;
35648;SDS011;21768;48.562;13.414;2023-07-13T10:46:02;8.88;;;1.83;;
35648;SDS011;21768;48.562;13.414;2023-07-13T10:48:29;7.70;;;2.17;;
35648;SDS011;21768;48.562;13.414;2023-07-13T10:50:57;11.20;;;2.30;;
35648;SDS011;21768;48.562;13.414;2023-07-13T10:53:33;4.53;;;1.90;;
35648;SDS011;21768;48.562;13.414;2023-07-13T10:58:37;5.50;;;2.10;;
35648;SDS011;21768;48.562;13.414;2023-07-13T11:06:29;2.47;;;1.67;;
35648;SDS011;21768;48.562;13.414;2023-07-13T11:09:19;15.23;;;2.22;;
35648;SDS011;21768;48.562;13.414;2023-07-13T11:11:53;5.40;;;1.83;;
35648;SDS011;21768;48.562;13.414;2023-07-13T11:16:56;2.67;;;1.27;;
35648;SDS011;21768;48.562;13.414;2023-07-13T11:27:27;9.07;;;1.40;;
35648;SDS011;21768;48.562;13.414;2023-07-13T11:30:09;8.25;;;1.85;;
35648;SDS011;21768;48.562;13.414;2023-07-13T11:32:39;5.40;;;1.50;;
35648;SDS011;21768;48.562;13.414;2023-07-13T11:35:04;3.22;;;1.50;;
35648;SDS011;21768;48.562;13.414;2023-07-13T11:37:35;3.25;;;1.55;;
35648;SDS011;21768;48.562;13.414;2023-07-13T11:40:00;4.10;;;1.40;;
35648;SDS011;21768;48.562;13.414;2023-07-13T11:42:25;5.50;;;1.20;;
35648;SDS011;21768;48.562;13.414;2023-07-13T11:44:52;5.13;;;1.50;;
35648;SDS011;21768;48.562;13.414;2023-07-13T11:47:21;3.67;;;1.27;;
35648;SDS011;21768;48.562;13.414;2023-07-13T11:49:52;4.00;;;1.60;;
35648;SDS011;21768;48.562;13.414;2023-07-13T11:52:27;5.22;;;1.50;;
35648;SDS011;21768;48.562;13.414;2023-07-13T11:55:01;4.47;;;1.30;;
35648;SDS011;21768;48.562;13.414;2023-07-13T11:57:32;5.75;;;1.50;;
35648;SDS011;21768;48.562;13.414;2023-07-13T12:00:04;10.88;;;1.52;;
35648;SDS011;21768;48.562;13.414;2023-07-13T12:02:42;7.60;;;1.70;;
35648;SDS011;21768;48.562;13.414;2023-07-13T12:05:11;3.88;;;1.40;;
35648;SDS011;21768;48.562;13.414;2023-07-13T12:07:38;6.93;;;1.60;;
35648;SDS011;21768;48.562;13.414;2023-07-13T12:12:55;2.65;;;1.48;;
35648;SDS011;21768;48.562;13.414;2023-07-13T12:15:40;9.48;;;1.60;;
35648;SDS011;21768;48.562;13.414;2023-07-13T12:18:14;6.63;;;1.40;;
35648;SDS011;21768;48.562;13.414;2023-07-13T12:20:43;6.80;;;1.63;;
35648;SDS011;21768;48.562;13.414;2023-07-13T12:23:15;5.60;;;1.60;;
35648;SDS011;21768;48.562;13.414;2023-07-13T12:25:49;4.97;;;1.45;;
35648;SDS011;21768;48.562;13.414;2023-07-13T12:28:22;6.55;;;1.45;;
35648;SDS011;21768;48.562;13.414;2023-07-13T12:30:59;4.75;;;1.42;;
35648;SDS011;21768;48.562;13.414;2023-07-13T12:33:28;4.47;;;1.50;;
35648;SDS011;21768;48.562;13.414;2023-07-13T12:35:55;2.42;;;1.50;;
35648;SDS011;21768;48.562;13.414;2023-07-13T12:38:20;5.47;;;1.45;;
35648;SDS011;21768;48.562;13.414;2023-07-13T12:40:48;7.65;;;1.67;;
35648;SDS011;21768;48.562;13.414;2023-07-13T12:43:15;4.00;;;1.40;;
35648;SDS011;21768;48.562;13.414;2023-07-13T12:48:42;3.83;;;1.45;;
35648;SDS011;21768;48.562;13.414;2023-07-13T12:51:11;7.03;;;1.40;;
35648;SDS011;21768;48.562;13.414;2023-07-13T12:53:39;2.50;;;1.50;;
35648;SDS011;21768;48.562;13.414;2023-07-13T12:56:08;5.18;;;1.60;;
35648;SDS011;21768;48.562;13.414;2023-07-13T12:58:43;3.22;;;1.95;;
35648;SDS011;21768;48.562;13.414;2023-07-13T13:01:11;9.80;;;1.42;;
35648;SDS011;21768;48.562;13.414;2023-07-13T13:03:39;3.00;;;1.40;;
35648;SDS011;21768;48.562;13.414;2023-07-13T13:06:17;5.25;;;1.40;;
35648;SDS011;21768;48.562;13.414;2023-07-13T13:08:48;3.28;;;1.35;;
35648;SDS011;21768;48.562;13.414;2023-07-13T13:11:15;6.05;;;1.60;;
35648;SDS011;21768;48.562;13.414;2023-07-13T13:13:42;5.22;;;1.58;;
35648;SDS011;21768;48.562;13.414;2023-07-13T13:18:39;2.60;;;1.30;;
35648;SDS011;21768;48.562;13.414;2023-07-13T13:21:04;3.33;;;1.35;;
35648;SDS011;21768;48.562;13.414;2023-07-13T13:23:29;2.13;;;1.45;;
35648;SDS011;21768;48.562;13.414;2023-07-13T13:25:55;4.90;;;1.40;;
35648;SDS011;21768;48.562;13.414;2023-07-13T13:28:20;6.75;;;1.65;;
35648;SDS011;21768;48.562;13.414;2023-07-13T13:30:47;5.97;;;1.65;;
35648;SDS011;21768;48.562;13.414;2023-07-13T13:33:14;4.68;;;1.52;;
35648;SDS011;21768;48.562;13.414;2023-07-13T13:35:42;6.53;;;1.90;;
35648;SDS011;21768;48.562;13.414;2023-07-13T13:40:44;3.45;;;1.70;;
35648;SDS011;21768;48.562;13.414;2023-07-13T13:43:25;9.73;;;1.70;;
35648;SDS011;21768;48.562;13.414;2023-07-13T13:45:52;3.65;;;1.80;;
35648;SDS011;21768;48.562;13.414;2023-07-13T13:48:30;3.70;;;1.77;;
35648;SDS011;21768;48.562;13.414;2023-07-13T13:50:58;3.70;;;1.42;;
35648;SDS011;21768;48.562;13.414;2023-07-13T13:53:24;9.52;;;1.50;;
35648;SDS011;21768;48.562;13.414;2023-07-13T13:55:50;5.85;;;1.70;;
35648;SDS011;21768;48.562;13.414;2023-07-13T13:58:17;6.25;;;1.42;;
35648;SDS011;21768;48.562;13.414;2023-07-13T14:00:43;5.25;;;1.67;;
35648;SDS011;21768;48.562;13.414;2023-07-13T14:03:20;12.88;;;1.75;;
35648;SDS011;21768;48.562;13.414;2023-07-13T14:05:47;6.03;;;1.60;;
35648;SDS011;21768;48.562;13.414;2023-07-13T14:08:17;6.93;;;1.73;;
35648;SDS011;21768;48.562;13.414;2023-07-13T14:10:45;4.07;;;1.50;;
35648;SDS011;21768;48.562;13.414;2023-07-13T14:13:15;2.97;;;1.45;;
35648;SDS011;21768;48.562;13.414;2023-07-13T14:15:43;3.65;;;1.50;;
35648;SDS011;21768;48.562;13.414;2023-07-13T14:18:09;2.25;;;1.60;;
35648;SDS011;21768;48.562;13.414;2023-07-13T14:20:35;5.80;;;1.60;;
35648;SDS011;21768;48.562;13.414;2023-07-13T14:23:00;14.65;;;1.63;;
35648;SDS011;21768;48.562;13.414;2023-07-13T14:25:26;6.15;;;1.40;;
35648;SDS011;21768;48.562;13.414;2023-07-13T14:27:53;6.05;;;1.73;;
35648;SDS011;21768;48.562;13.414;2023-07-13T14:30:24;7.30;;;1.55;;
35648;SDS011;21768;48.562;13.414;2023-07-13T14:32:50;10.18;;;1.50;;
35648;SDS011;21768;48.562;13.414;2023-07-13T14:35:16;5.13;;;1.73;;
35648;SDS011;21768;48.562;13.414;2023-07-13T14:37:45;3.88;;;1.60;;
35648;SDS011;21768;48.562;13.414;2023-07-13T14:42:41;5.78;;;2.45;;
35648;SDS011;21768;48.562;13.414;2023-07-13T14:45:14;4.97;;;1.33;;
35648;SDS011;21768;48.562;13.414;2023-07-13T14:47:41;6.18;;;1.85;;
35648;SDS011;21768;48.562;13.414;2023-07-13T14:52:41;8.45;;;1.38;;
35648;SDS011;21768;48.562;13.414;2023-07-13T14:55:10;3.95;;;1.52;;
35648;SDS011;21768;48.562;13.414;2023-07-13T14:57:39;5.18;;;1.75;;
35648;SDS011;21768;48.562;13.414;2023-07-13T15:00:14;5.22;;;1.60;;
35648;SDS011;21768;48.562;13.414;2023-07-13T15:02:43;6.03;;;1.58;;
35648;SDS011;21768;48.562;13.414;2023-07-13T15:05:16;2.40;;;1.20;;
35648;SDS011;21768;48.562;13.414;2023-07-13T15:07:48;5.30;;;1.60;;
35648;SDS011;21768;48.562;13.414;2023-07-13T15:12:47;4.15;;;1.50;;
35648;SDS011;21768;48.562;13.414;2023-07-13T15:15:13;4.85;;;1.60;;
35648;SDS011;21768;48.562;13.414;2023-07-13T15:17:40;4.70;;;1.50;;
35648;SDS011;21768;48.562;13.414;2023-07-13T15:20:29;10.38;;;2.45;;
35648;SDS011;21768;48.562;13.414;2023-07-13T15:22:57;11.43;;;4.97;;
35648;SDS011;21768;48.562;13.414;2023-07-13T15:25:25;4.28;;;1.20;;
35648;SDS011;21768;48.562;13.414;2023-07-13T15:27:53;4.75;;;1.65;;
35648;SDS011;21768;48.562;13.414;2023-07-13T15:30:19;3.95;;;1.30;;
35648;SDS011;21768;48.562;13.414;2023-07-13T15:32:45;3.63;;;1.50;;